createdAt,value
2022-12-31T00:03:34.114Z,38.30
2022-12-31T00:07:50.410Z,32.78
2022-12-31T00:12:07.020Z,32.70
2022-12-31T00:16:28.665Z,29.77
2022-12-31T00:20:44.939Z,37.20
2022-12-31T00:25:01.179Z,33.88
2022-12-31T00:29:17.385Z,32.35
2022-12-31T00:33:33.605Z,31.67
2022-12-31T00:37:51.546Z,35.20
2022-12-31T00:42:07.928Z,36.10
2022-12-31T00:46:25.379Z,30.12
2022-12-31T00:50:41.625Z,32.65
2022-12-31T00:54:58.058Z,29.25
2022-12-31T00:59:14.204Z,31.37
2022-12-31T01:03:30.391Z,33.58
2022-12-31T01:07:46.614Z,35.63
2022-12-31T01:12:03.730Z,36.20
2022-12-31T01:16:22.412Z,37.72
2022-12-31T01:20:40.486Z,34.38
2022-12-31T01:24:56.696Z,37.30
2022-12-31T01:29:14.496Z,41.00
2022-12-31T01:33:30.775Z,41.85
2022-12-31T01:37:49.468Z,59.10
2022-12-31T01:42:05.891Z,56.22
2022-12-31T01:46:25.454Z,63.03
2022-12-31T01:50:44.567Z,53.40
2022-12-31T01:55:28.655Z,55.47
2022-12-31T01:59:45.622Z,43.83
2022-12-31T02:04:05.604Z,48.28
2022-12-31T02:08:22.280Z,46.60
2022-12-31T02:12:38.681Z,50.63
2022-12-31T02:17:00.693Z,46.88
2022-12-31T02:21:30.208Z,49.33
2022-12-31T02:25:55.348Z,53.00
2022-12-31T02:30:32.471Z,45.80
2022-12-31T02:35:04.676Z,60.80
2022-12-31T02:39:21.419Z,48.90
2022-12-31T02:43:46.006Z,41.70
2022-12-31T02:48:07.976Z,43.13
2022-12-31T02:52:49.146Z,45.17
2022-12-31T02:57:34.142Z,57.28
2022-12-31T03:02:14.330Z,39.72
2022-12-31T03:06:31.468Z,42.53
2022-12-31T03:10:47.655Z,41.13
2022-12-31T03:15:06.838Z,44.67
2022-12-31T03:19:41.345Z,40.95
2022-12-31T03:24:16.061Z,44.40
2022-12-31T03:28:32.260Z,42.03
2022-12-31T03:32:49.421Z,42.50
2022-12-31T03:37:05.575Z,39.45
2022-12-31T03:41:21.725Z,38.28
2022-12-31T03:45:38.053Z,42.97
2022-12-31T03:49:54.362Z,39.03
2022-12-31T03:54:10.679Z,39.17
2022-12-31T03:58:26.947Z,41.53
2022-12-31T04:02:43.132Z,42.60
2022-12-31T04:06:59.349Z,37.40
2022-12-31T04:11:20.649Z,35.10
2022-12-31T04:15:37.244Z,34.13
2022-12-31T04:19:53.498Z,34.83
2022-12-31T04:24:09.954Z,37.67
2022-12-31T04:28:26.316Z,38.33
2022-12-31T04:32:42.825Z,36.50
2022-12-31T04:36:59.298Z,42.08
2022-12-31T04:41:18.247Z,34.85
2022-12-31T04:45:34.499Z,42.58
2022-12-31T04:49:50.604Z,34.65
2022-12-31T04:54:06.890Z,35.17
2022-12-31T04:58:23.093Z,40.67
2022-12-31T05:02:39.472Z,41.85
2022-12-31T05:06:55.812Z,43.10
2022-12-31T05:11:12.044Z,37.67
2022-12-31T05:15:28.298Z,31.80
2022-12-31T05:19:44.443Z,35.92
2022-12-31T05:24:00.615Z,33.95
2022-12-31T05:28:17.097Z,42.28
2022-12-31T05:32:33.759Z,37.55
2022-12-31T05:36:49.906Z,35.92
2022-12-31T05:41:07.928Z,36.47
2022-12-31T05:45:30.333Z,32.55
2022-12-31T05:49:47.292Z,32.92
2022-12-31T05:54:03.528Z,33.75
2022-12-31T05:58:19.623Z,32.65
2022-12-31T06:02:35.877Z,30.88
2022-12-31T06:06:52.198Z,31.83
2022-12-31T06:11:08.370Z,33.42
2022-12-31T06:15:24.490Z,30.92
2022-12-31T06:19:40.669Z,35.15
2022-12-31T06:23:56.874Z,30.42
2022-12-31T06:28:19.846Z,31.67
2022-12-31T06:32:36.668Z,36.00
2022-12-31T06:36:52.953Z,31.50
2022-12-31T06:41:11.414Z,32.28
2022-12-31T06:45:28.455Z,36.78
2022-12-31T06:49:44.831Z,35.88
2022-12-31T06:54:01.023Z,35.78
2022-12-31T06:58:18.043Z,34.13
2022-12-31T07:02:47.009Z,33.53
2022-12-31T07:07:36.934Z,33.85
2022-12-31T13:51:19.135Z,51.15
2022-12-31T13:55:45.249Z,46.47
2022-12-31T14:00:04.935Z,58.65
2022-12-31T14:04:47.748Z,48.80
2022-12-31T14:09:05.051Z,46.80
2022-12-31T14:14:15.519Z,46.03
2022-12-31T14:18:46.720Z,48.67
2022-12-31T14:23:30.012Z,49.58
2022-12-31T14:27:46.826Z,62.65
2022-12-31T14:32:20.362Z,53.92
2022-12-31T14:37:11.434Z,59.20
2022-12-31T14:41:51.185Z,55.33
2022-12-31T14:46:27.536Z,49.95
2022-12-31T14:50:46.374Z,53.42
2022-12-31T14:55:09.897Z,52.90
2022-12-31T15:03:46.326Z,52.55
2022-12-31T15:08:22.321Z,54.10
2022-12-31T15:13:06.531Z,50.03
2022-12-31T15:17:36.639Z,48.75
2022-12-31T15:22:27.839Z,49.50
2022-12-31T15:26:53.133Z,57.88
2022-12-31T15:31:18.518Z,52.15
2022-12-31T15:35:48.409Z,58.83
2022-12-31T15:40:25.809Z,62.88
2022-12-31T15:45:02.384Z,65.87
2022-12-31T15:49:23.281Z,56.35
2022-12-31T15:53:52.775Z,59.10
2022-12-31T15:58:14.468Z,71.35
2022-12-31T16:02:30.779Z,59.80
2022-12-31T16:06:50.689Z,54.22
2022-12-31T16:11:08.866Z,57.20
2022-12-31T16:15:28.514Z,61.55
2022-12-31T16:19:48.651Z,61.30
2022-12-31T16:24:06.397Z,64.68
2022-12-31T16:28:25.313Z,71.12
2022-12-31T16:32:42.599Z,63.15
2022-12-31T16:37:04.498Z,64.80
2022-12-31T16:41:22.233Z,65.12
2022-12-31T16:45:38.886Z,64.25
2022-12-31T16:50:04.234Z,62.40
2022-12-31T16:54:42.179Z,56.03
2022-12-31T16:59:06.621Z,58.50
2022-12-31T17:03:28.464Z,54.53
2022-12-31T17:07:44.663Z,62.62
2022-12-31T17:12:16.513Z,61.28
2022-12-31T17:16:34.281Z,54.58
2022-12-31T17:20:52.580Z,59.53
2022-12-31T17:25:09.790Z,57.40
2022-12-31T17:29:26.798Z,53.30
2022-12-31T17:33:42.980Z,68.03
2022-12-31T17:38:18.046Z,60.40
2022-12-31T17:42:37.099Z,71.72
2022-12-31T17:46:53.835Z,59.17
2022-12-31T17:51:10.312Z,76.97
2022-12-31T17:55:26.810Z,76.43
2022-12-31T17:59:42.951Z,75.37
2022-12-31T18:03:59.110Z,58.80
2022-12-31T18:08:15.334Z,61.45
2022-12-31T18:12:31.584Z,81.37
2022-12-31T18:16:48.467Z,74.28
2022-12-31T18:21:07.825Z,73.68
2022-12-31T18:25:24.597Z,68.57
2022-12-31T18:29:40.764Z,77.25
2022-12-31T18:33:59.243Z,82.85
2022-12-31T18:38:17.335Z,88.78
2022-12-31T18:42:33.511Z,71.87
2022-12-31T18:46:50.923Z,75.53
2022-12-31T18:51:08.038Z,69.53
2022-12-31T18:55:39.848Z,68.87
2022-12-31T18:59:56.277Z,68.10
2022-12-31T19:04:26.637Z,52.80
2022-12-31T19:08:43.937Z,59.40
2022-12-31T19:13:00.117Z,59.45
2022-12-31T19:17:16.298Z,51.28
2022-12-31T19:21:32.582Z,55.65
2022-12-31T19:25:49.520Z,53.08
2022-12-31T19:30:06.300Z,56.60
2022-12-31T19:34:22.571Z,45.17
2022-12-31T19:38:38.700Z,49.20
2022-12-31T19:42:56.056Z,51.88
2022-12-31T19:47:13.405Z,51.80
2022-12-31T19:51:29.545Z,57.65
2022-12-31T19:55:45.854Z,50.83
2022-12-31T20:00:02.027Z,50.25
2022-12-31T20:04:18.462Z,55.42
2022-12-31T20:08:36.714Z,51.00
2022-12-31T20:12:52.932Z,56.85
2022-12-31T20:17:10.743Z,59.67
2022-12-31T20:21:29.262Z,67.78
2022-12-31T20:25:45.419Z,66.00
2022-12-31T20:30:01.638Z,69.25
2022-12-31T20:34:18.044Z,72.97
2022-12-31T20:38:34.507Z,55.28
2022-12-31T20:42:50.641Z,66.57
2022-12-31T20:47:06.872Z,68.55
2022-12-31T20:51:24.366Z,71.12
2022-12-31T20:55:44.573Z,56.20
2022-12-31T21:00:01.332Z,105.30
2022-12-31T21:04:17.718Z,58.95
2022-12-31T21:08:35.175Z,69.20
2022-12-31T21:12:54.306Z,76.28
2022-12-31T21:17:10.454Z,68.93
2022-12-31T21:21:27.350Z,66.43
2022-12-31T21:25:46.241Z,75.57
2022-12-31T21:30:19.537Z,80.43
2022-12-31T21:34:36.133Z,64.95
2022-12-31T21:38:52.458Z,82.72
2022-12-31T21:43:10.017Z,101.03
2022-12-31T21:47:47.676Z,101.03
2022-12-31T21:52:22.681Z,93.40
2022-12-31T21:56:38.877Z,65.78
2022-12-31T22:01:15.540Z,62.38
2022-12-31T22:05:31.803Z,65.93
2022-12-31T22:09:48.017Z,76.22
2022-12-31T22:14:04.175Z,68.00
2022-12-31T22:18:20.688Z,65.90
2022-12-31T22:22:36.951Z,63.83
2022-12-31T22:26:55.732Z,72.05
2022-12-31T22:31:15.585Z,74.10
2022-12-31T22:35:31.738Z,90.90
2022-12-31T22:39:47.963Z,92.37
2022-12-31T22:44:05.329Z,79.47
2022-12-31T22:48:21.486Z,81.93
2022-12-31T22:52:37.802Z,70.70
2022-12-31T22:56:54.046Z,68.40
2022-12-31T23:01:34.646Z,64.85
2022-12-31T23:05:52.709Z,73.75
2022-12-31T23:10:29.175Z,77.45
2022-12-31T23:15:04.111Z,78.72
2022-12-31T23:19:39.059Z,72.43
2022-12-31T23:23:55.214Z,81.65
2022-12-31T23:28:18.534Z,85.70
2022-12-31T23:32:34.719Z,88.72
2022-12-31T23:36:50.869Z,99.03
2022-12-31T23:41:18.455Z,83.37
2022-12-31T23:45:35.502Z,92.75
2022-12-31T23:49:51.676Z,129.75
2022-12-31T23:54:08.313Z,201.15
2022-12-31T23:58:25.155Z,144.05
